createdAt,value
2022-10-28T00:02:18.538Z,8.05
2022-10-28T00:04:48.465Z,7.97
2022-10-28T00:07:19.380Z,7.93
2022-10-28T00:09:49.179Z,7.43
2022-10-28T00:12:18.783Z,7.82
2022-10-28T00:14:48.488Z,9.13
2022-10-28T00:17:18.185Z,8.32
2022-10-28T00:19:48.422Z,8.55
2022-10-28T00:22:18.178Z,9.15
2022-10-28T00:24:48.065Z,8.60
2022-10-28T00:27:17.896Z,9.00
2022-10-28T00:29:48.099Z,8.02
2022-10-28T00:32:18.021Z,8.27
2022-10-28T00:34:48.459Z,12.55
2022-10-28T00:37:18.044Z,9.73
2022-10-28T00:39:48.316Z,9.73
2022-10-28T00:42:18.766Z,8.73
2022-10-28T00:44:57.650Z,9.25
2022-10-28T00:47:39.662Z,10.60
2022-10-28T00:50:09.438Z,10.00
2022-10-28T00:52:39.213Z,8.73
2022-10-28T00:55:09.149Z,8.88
2022-10-28T00:57:39.733Z,8.70
2022-10-28T01:00:09.711Z,8.20
2022-10-28T01:02:40.971Z,8.45
2022-10-28T01:05:10.970Z,9.05
2022-10-28T01:07:40.589Z,9.13
2022-10-28T01:10:10.583Z,11.02
2022-10-28T01:12:50.685Z,9.10
2022-10-28T01:15:26.562Z,8.95
2022-10-28T01:17:56.283Z,11.00
2022-10-28T01:20:26.145Z,9.73
2022-10-28T01:22:58.055Z,9.55
2022-10-28T01:25:31.147Z,9.60
2022-10-28T01:28:07.286Z,10.30
2022-10-28T01:30:44.658Z,9.88
2022-10-28T01:33:24.471Z,9.40
2022-10-28T01:36:06.717Z,10.63
2022-10-28T01:38:39.617Z,10.02
2022-10-28T01:41:25.563Z,10.73
2022-10-28T01:44:17.610Z,10.80
2022-10-28T01:46:59.331Z,10.45
2022-10-28T01:49:31.843Z,9.95
2022-10-28T01:52:03.415Z,10.80
2022-10-28T01:54:36.328Z,10.52
2022-10-28T01:57:06.345Z,9.85
2022-10-28T01:59:36.342Z,11.15
2022-10-28T02:02:06.289Z,9.57
2022-10-28T02:04:36.133Z,9.65
2022-10-28T02:07:05.805Z,8.98
2022-10-28T02:09:54.012Z,9.43
2022-10-28T02:12:23.572Z,10.17
2022-10-28T02:14:53.230Z,10.68
2022-10-28T02:17:32.009Z,9.68
2022-10-28T02:20:20.392Z,10.45
2022-10-28T02:22:54.236Z,10.43
2022-10-28T02:25:37.677Z,9.70
2022-10-28T02:28:07.617Z,11.38
2022-10-28T02:31:01.818Z,9.85
2022-10-28T02:33:32.891Z,10.73
2022-10-28T02:36:28.698Z,11.38
2022-10-28T02:38:58.941Z,11.27
2022-10-28T02:41:28.643Z,10.55
2022-10-28T02:43:58.710Z,11.65
2022-10-28T02:46:28.460Z,11.20
2022-10-28T02:49:03.204Z,11.82
2022-10-28T02:51:34.930Z,13.13
2022-10-28T02:54:07.781Z,13.40
2022-10-28T02:56:41.976Z,12.68
2022-10-28T02:59:14.501Z,14.60
2022-10-28T03:01:44.400Z,14.20
2022-10-28T03:04:14.161Z,14.40
2022-10-28T03:06:44.012Z,14.00
2022-10-28T03:09:13.728Z,14.00
2022-10-28T03:11:43.772Z,14.20
2022-10-28T03:14:15.415Z,13.07
2022-10-28T03:16:47.983Z,12.85
2022-10-28T03:19:17.670Z,12.55
2022-10-28T03:21:47.366Z,13.77
2022-10-28T03:24:17.151Z,13.60
2022-10-28T03:26:47.176Z,15.57
2022-10-28T03:29:17.193Z,14.80
2022-10-28T03:31:47.354Z,16.35
2022-10-28T03:34:17.396Z,15.05
2022-10-28T03:36:47.010Z,23.35
2022-10-28T03:39:16.881Z,17.60
2022-10-28T03:41:49.227Z,17.38
2022-10-28T03:44:18.783Z,15.85
2022-10-28T03:46:51.404Z,16.17
2022-10-28T03:49:21.122Z,16.10
2022-10-28T03:51:50.912Z,17.35
2022-10-28T03:54:20.612Z,16.13
2022-10-28T03:56:50.850Z,19.30
2022-10-28T03:59:20.757Z,17.98
2022-10-28T04:01:50.931Z,19.35
2022-10-28T04:04:20.653Z,18.88
2022-10-28T04:06:50.271Z,18.90
2022-10-28T04:09:20.032Z,18.98
2022-10-28T04:11:55.972Z,19.67
2022-10-28T04:14:25.985Z,17.83
2022-10-28T04:16:55.756Z,20.55
2022-10-28T04:19:25.423Z,19.40
2022-10-28T04:21:55.028Z,19.38
2022-10-28T04:24:28.973Z,20.77
2022-10-28T04:26:58.804Z,21.00
2022-10-28T04:29:28.799Z,18.55
2022-10-28T04:31:58.566Z,19.33
2022-10-28T04:34:28.883Z,17.40
2022-10-28T04:36:58.794Z,17.67
2022-10-28T04:39:28.432Z,16.38
2022-10-28T04:41:58.187Z,16.05
2022-10-28T04:44:27.879Z,15.85
2022-10-28T04:47:00.364Z,14.90
2022-10-28T04:49:30.100Z,14.93
2022-10-28T04:51:59.728Z,14.57
2022-10-28T04:54:29.673Z,15.18
2022-10-28T04:56:59.366Z,15.93
2022-10-28T04:59:29.275Z,15.18
2022-10-28T05:01:59.090Z,17.10
2022-10-28T05:04:28.926Z,16.20
2022-10-28T05:06:58.574Z,15.93
2022-10-28T05:09:28.252Z,17.98
2022-10-28T05:11:57.976Z,17.73
2022-10-28T05:14:27.896Z,17.10
2022-10-28T05:16:57.655Z,17.13
2022-10-28T05:19:27.433Z,18.00
2022-10-28T05:21:57.286Z,18.95
2022-10-28T05:24:26.968Z,16.67
2022-10-28T05:26:56.918Z,16.35
2022-10-28T05:29:30.861Z,15.93
2022-10-28T05:32:06.429Z,15.93
2022-10-28T05:34:36.417Z,15.60
2022-10-28T05:37:06.070Z,15.40
2022-10-28T05:39:36.030Z,13.52
2022-10-28T05:42:05.790Z,14.05
2022-10-28T05:44:35.633Z,13.90
2022-10-28T05:47:05.382Z,14.68
2022-10-28T05:49:35.303Z,14.80
2022-10-28T05:52:07.975Z,15.35
2022-10-28T05:54:41.132Z,16.30
2022-10-28T05:57:10.828Z,16.88
2022-10-28T05:59:40.497Z,16.13
2022-10-28T06:02:12.977Z,17.83
2022-10-28T06:04:42.683Z,16.88
2022-10-28T06:07:12.532Z,18.67
2022-10-28T06:09:42.367Z,18.85
2022-10-28T06:12:10.426Z,19.48
2022-10-28T06:14:40.050Z,19.90
2022-10-28T06:17:09.755Z,20.33
2022-10-28T06:19:39.585Z,19.85
2022-10-28T06:22:09.539Z,20.40
2022-10-28T06:24:39.564Z,21.27
2022-10-28T06:27:09.212Z,19.50
2022-10-28T06:29:39.255Z,19.30
2022-10-28T06:32:16.295Z,21.02
2022-10-28T06:34:49.296Z,22.20
2022-10-28T06:37:19.065Z,21.20
2022-10-28T06:39:52.830Z,21.17
2022-10-28T06:42:22.686Z,22.98
2022-10-28T06:44:52.858Z,20.30
2022-10-28T06:47:24.067Z,21.42
2022-10-28T06:49:53.655Z,23.63
2022-10-28T06:52:23.390Z,22.90
2022-10-28T06:54:53.220Z,22.63
2022-10-28T06:57:25.643Z,23.63
2022-10-28T06:59:58.396Z,23.33
2022-10-28T07:02:28.597Z,22.88
2022-10-28T07:04:58.903Z,23.70
2022-10-28T07:07:28.626Z,24.77
2022-10-28T07:09:58.246Z,26.85
2022-10-28T07:12:29.376Z,25.95
2022-10-28T07:14:59.165Z,26.77
2022-10-28T07:17:30.537Z,25.08
2022-10-28T07:20:00.464Z,28.15
2022-10-28T07:22:30.194Z,24.77
2022-10-28T07:24:59.798Z,25.77
2022-10-28T07:27:29.475Z,25.85
2022-10-28T07:29:59.062Z,25.42
2022-10-28T07:32:28.718Z,26.00
2022-10-28T07:34:58.307Z,24.95
2022-10-28T07:37:27.987Z,25.15
2022-10-28T07:39:57.552Z,24.58
2022-10-28T07:42:27.223Z,24.35
2022-10-28T07:44:57.036Z,24.15
2022-10-28T07:47:26.665Z,24.88
2022-10-28T07:50:02.926Z,21.95
2022-10-28T07:52:32.572Z,23.73
2022-10-28T07:55:02.369Z,23.75
2022-10-28T07:57:32.015Z,22.77
2022-10-28T08:00:02.079Z,19.25
2022-10-28T08:02:32.177Z,19.63
2022-10-28T08:05:03.513Z,19.27
2022-10-28T08:07:37.708Z,17.90
2022-10-28T08:10:08.892Z,19.25
2022-10-28T08:12:38.560Z,19.17
2022-10-28T08:15:11.077Z,18.13
2022-10-28T08:17:40.713Z,17.83
2022-10-28T08:20:10.542Z,16.75
2022-10-28T08:22:40.849Z,16.40
2022-10-28T08:25:10.601Z,17.88
2022-10-28T08:27:40.821Z,18.02
2022-10-28T08:30:11.956Z,17.13
2022-10-28T08:32:44.808Z,22.85
2022-10-28T08:35:18.069Z,19.20
2022-10-28T08:37:53.445Z,17.60
2022-10-28T08:40:23.699Z,18.92
2022-10-28T08:42:53.650Z,20.33
2022-10-28T08:45:23.566Z,19.98
2022-10-28T08:48:05.453Z,20.60
2022-10-28T08:50:35.524Z,22.45
2022-10-28T08:53:05.671Z,19.13
2022-10-28T08:55:38.580Z,20.23
2022-10-28T08:58:15.449Z,17.13
2022-10-28T09:00:45.770Z,16.08
2022-10-28T09:03:15.564Z,17.02
2022-10-28T09:05:46.522Z,15.25
2022-10-28T09:08:26.261Z,12.63
2022-10-28T09:11:14.636Z,12.05
2022-10-28T09:14:04.340Z,13.50
2022-10-28T09:16:41.021Z,11.80
2022-10-28T09:19:25.915Z,12.07
2022-10-28T09:22:03.861Z,11.48
2022-10-28T09:24:53.685Z,10.07
2022-10-28T09:27:26.559Z,9.13
2022-10-28T09:29:57.155Z,7.70
2022-10-28T09:32:27.021Z,9.85
2022-10-28T09:34:59.774Z,9.20
2022-10-28T09:37:34.104Z,6.68
2022-10-28T09:40:23.788Z,5.93
2022-10-28T09:43:05.147Z,5.63
2022-10-28T09:45:35.153Z,5.25
2022-10-28T09:48:06.304Z,4.78
2022-10-28T09:50:36.073Z,4.78
2022-10-28T09:53:05.716Z,5.18
2022-10-28T09:55:35.684Z,5.40
2022-10-28T09:58:06.244Z,9.43
2022-10-28T10:00:35.938Z,6.45
2022-10-28T10:03:05.603Z,6.15
2022-10-28T10:05:35.866Z,9.02
2022-10-28T10:08:08.278Z,8.15
2022-10-28T10:10:57.915Z,9.27
2022-10-28T10:13:31.455Z,9.93
2022-10-28T10:16:20.863Z,9.90
2022-10-28T10:18:52.632Z,10.35
2022-10-28T10:21:28.734Z,9.05
2022-10-28T10:23:58.465Z,10.35
2022-10-28T10:26:28.407Z,8.90
2022-10-28T10:28:58.221Z,7.45
2022-10-28T10:31:31.938Z,6.85
2022-10-28T10:34:01.772Z,6.78
2022-10-28T10:36:32.825Z,6.88
2022-10-28T10:39:02.932Z,6.63
2022-10-28T10:41:50.714Z,7.20
2022-10-28T10:44:23.370Z,6.05
2022-10-28T10:46:56.274Z,5.65
2022-10-28T10:49:25.935Z,5.97
2022-10-28T10:51:59.339Z,6.55
2022-10-28T10:54:29.281Z,7.13
2022-10-28T10:57:34.207Z,6.22
2022-10-28T11:00:03.990Z,6.80
2022-10-28T11:02:38.437Z,7.85
2022-10-28T11:05:19.517Z,6.78
2022-10-28T11:07:50.714Z,6.70
2022-10-28T11:10:28.141Z,6.90
2022-10-28T11:13:17.674Z,7.07
2022-10-28T11:15:47.713Z,7.20
2022-10-28T11:18:22.323Z,7.13
2022-10-28T11:21:01.915Z,7.00
2022-10-28T11:23:50.032Z,6.40
2022-10-28T11:26:19.996Z,6.32
2022-10-28T11:28:50.018Z,7.70
2022-10-28T11:31:23.054Z,6.22
2022-10-28T11:34:08.833Z,7.40
2022-10-28T11:36:54.246Z,7.15
2022-10-28T11:39:30.394Z,8.15
2022-10-28T11:42:18.446Z,8.70
2022-10-28T11:45:08.369Z,9.80
2022-10-28T11:47:38.119Z,11.93
2022-10-28T11:50:37.029Z,11.50
2022-10-28T11:53:09.764Z,14.32
2022-10-28T11:55:45.134Z,15.90
2022-10-28T11:58:33.016Z,14.52
2022-10-28T12:01:15.268Z,15.05
2022-10-28T12:03:45.044Z,14.57
2022-10-28T12:06:33.213Z,15.02
2022-10-28T12:09:02.924Z,17.03
2022-10-28T12:11:51.679Z,15.43
2022-10-28T12:14:30.472Z,16.23
2022-10-28T12:17:06.098Z,15.32
2022-10-28T12:19:38.825Z,14.95
2022-10-28T12:22:27.082Z,16.40
2022-10-28T12:24:56.833Z,16.63
2022-10-28T12:27:33.626Z,16.48
2022-10-28T12:30:04.406Z,16.30
2022-10-28T12:32:35.720Z,16.35
2022-10-28T12:35:10.101Z,16.48
2022-10-28T12:37:48.729Z,16.38
2022-10-28T12:40:25.354Z,16.73
2022-10-28T12:42:57.343Z,15.35
2022-10-28T12:45:27.429Z,14.07
2022-10-28T12:48:03.618Z,13.73
2022-10-28T12:50:36.424Z,14.05
2022-10-28T12:53:06.583Z,13.15
2022-10-28T12:55:46.365Z,12.00
2022-10-28T12:58:19.313Z,10.00
2022-10-28T13:00:54.239Z,9.75
2022-10-28T13:03:24.118Z,9.35
2022-10-28T13:05:53.807Z,10.32
2022-10-28T13:08:23.474Z,11.15
2022-10-28T13:11:13.064Z,11.52
2022-10-28T13:13:48.964Z,10.95
2022-10-28T13:16:28.268Z,10.30
2022-10-28T13:19:16.214Z,10.70
2022-10-28T13:22:04.329Z,8.38
2022-10-28T13:24:40.194Z,5.97
2022-10-28T13:27:11.359Z,6.25
2022-10-28T13:29:40.942Z,6.03
2022-10-28T13:32:26.299Z,5.70
2022-10-28T13:34:55.981Z,6.97
2022-10-28T13:37:26.012Z,6.30
2022-10-28T13:39:55.785Z,5.88
2022-10-28T13:42:25.600Z,5.82
2022-10-28T13:44:56.801Z,7.57
2022-10-28T13:47:33.733Z,7.57
2022-10-28T13:50:09.751Z,8.00
2022-10-28T13:52:46.302Z,9.00
2022-10-28T13:55:22.205Z,8.32
2022-10-28T13:57:53.115Z,9.73
2022-10-28T14:00:24.047Z,9.02
2022-10-28T14:03:00.565Z,9.27
2022-10-28T14:05:40.186Z,11.32
2022-10-28T14:10:39.858Z,11.68
2022-10-28T14:13:20.187Z,11.73
2022-10-28T14:15:49.963Z,12.25
2022-10-28T14:18:42.247Z,10.95
2022-10-28T14:21:09.627Z,10.40
2022-10-28T14:23:45.405Z,10.50
2022-10-28T14:26:15.285Z,8.77
2022-10-28T14:28:44.910Z,9.52
2022-10-28T14:31:32.259Z,7.47
2022-10-28T14:34:01.871Z,7.30
2022-10-28T14:36:58.129Z,6.57
2022-10-28T14:39:43.731Z,6.60
2022-10-28T14:42:13.568Z,5.95
2022-10-28T14:44:58.257Z,6.25
2022-10-28T14:47:46.366Z,5.70
2022-10-28T14:50:15.990Z,4.38
2022-10-28T14:52:45.592Z,4.65
2022-10-28T14:55:28.855Z,4.38
2022-10-28T14:58:14.959Z,4.10
2022-10-28T15:00:46.403Z,4.07
2022-10-28T15:03:16.082Z,3.65
2022-10-28T15:05:45.723Z,3.60
2022-10-28T15:08:15.344Z,3.40
2022-10-28T15:10:47.894Z,2.78
2022-10-28T15:13:20.577Z,3.10
2022-10-28T15:15:59.359Z,3.22
2022-10-28T15:18:31.833Z,3.17
2022-10-28T15:21:13.755Z,2.92
2022-10-28T15:23:44.445Z,3.00
2022-10-28T15:26:16.808Z,2.67
2022-10-28T15:28:46.396Z,2.83
2022-10-28T15:31:16.633Z,2.50
2022-10-28T15:33:47.294Z,3.30
2022-10-28T15:36:18.516Z,2.72
2022-10-28T15:38:54.994Z,2.97
2022-10-28T15:41:25.149Z,2.30
2022-10-28T15:43:58.655Z,2.33
2022-10-28T15:46:28.585Z,3.33
2022-10-28T15:48:59.273Z,2.30
2022-10-28T15:51:29.131Z,2.55
2022-10-28T15:54:25.238Z,2.78
2022-10-28T15:56:58.787Z,2.25
2022-10-28T15:59:28.616Z,1.77
2022-10-28T16:02:00.623Z,2.63
2022-10-28T16:04:42.608Z,2.63
2022-10-28T16:07:12.577Z,2.25
2022-10-28T16:09:46.230Z,2.08
2022-10-28T16:12:22.646Z,2.75
2022-10-28T16:15:01.926Z,2.17
2022-10-28T16:17:32.381Z,1.80
2022-10-28T16:20:06.067Z,1.73
2022-10-28T16:22:37.281Z,1.63
2022-10-28T16:25:16.614Z,1.48
2022-10-28T16:27:46.427Z,1.83
2022-10-28T16:30:16.510Z,1.70
2022-10-28T16:32:52.314Z,1.92
2022-10-28T16:35:22.849Z,1.70
2022-10-28T16:37:55.550Z,1.63
2022-10-28T16:43:19.207Z,1.38
2022-10-28T16:45:49.702Z,1.20
2022-10-28T16:48:19.554Z,1.80
2022-10-28T16:50:53.619Z,1.60
2022-10-28T16:53:23.302Z,2.17
2022-10-28T16:55:52.995Z,1.60
2022-10-28T16:58:26.062Z,1.42
2022-10-28T17:00:56.893Z,1.88
2022-10-28T17:03:26.482Z,1.42
2022-10-28T17:05:56.119Z,1.80
2022-10-28T17:08:48.915Z,1.67
2022-10-28T17:11:18.709Z,1.50
2022-10-28T17:13:49.504Z,1.50
2022-10-28T17:16:19.399Z,1.30
2022-10-28T17:18:51.865Z,1.55
2022-10-28T17:21:21.719Z,1.45
2022-10-28T17:23:51.281Z,1.48
2022-10-28T17:26:20.866Z,1.60
2022-10-28T17:28:54.149Z,1.58
2022-10-28T17:31:25.457Z,1.60
2022-10-28T17:33:56.348Z,1.30
2022-10-28T17:36:26.169Z,1.73
2022-10-28T17:38:55.850Z,1.35
2022-10-28T17:41:25.436Z,2.05
2022-10-28T17:43:55.711Z,2.25
2022-10-28T17:46:25.319Z,1.42
2022-10-28T17:48:54.894Z,1.98
2022-10-28T17:51:26.473Z,1.55
2022-10-28T17:53:59.811Z,2.22
2022-10-28T17:56:29.449Z,1.70
2022-10-28T17:58:59.488Z,2.13
2022-10-28T18:01:29.478Z,2.03
2022-10-28T18:03:59.153Z,1.42
2022-10-28T18:06:28.827Z,1.90
2022-10-28T18:08:59.805Z,2.10
2022-10-28T18:11:32.955Z,1.88
2022-10-28T18:14:02.593Z,1.58
2022-10-28T18:16:32.143Z,1.60
2022-10-28T18:19:05.165Z,1.65
2022-10-28T18:21:34.901Z,2.10
2022-10-28T18:24:07.540Z,1.88
2022-10-28T18:26:37.960Z,1.70
2022-10-28T18:29:09.472Z,2.20
2022-10-28T18:31:42.068Z,1.55
2022-10-28T18:34:11.851Z,1.88
2022-10-28T18:36:41.597Z,2.40
2022-10-28T18:39:11.405Z,2.88
2022-10-28T18:41:44.183Z,3.33
2022-10-28T18:44:15.444Z,2.90
2022-10-28T18:46:46.658Z,2.90
2022-10-28T18:49:16.397Z,3.88
2022-10-28T18:51:45.985Z,2.95
2022-10-28T18:54:15.796Z,3.90
2022-10-28T18:56:47.883Z,4.40
2022-10-28T18:59:18.298Z,4.50
2022-10-28T19:01:48.090Z,3.08
2022-10-28T19:04:18.043Z,3.25
2022-10-28T19:06:48.134Z,2.78
2022-10-28T19:09:17.955Z,2.58
2022-10-28T19:11:47.587Z,2.22
2022-10-28T19:14:17.285Z,2.58
2022-10-28T19:16:46.973Z,2.83
2022-10-28T19:19:16.687Z,2.92
2022-10-28T19:21:46.495Z,3.13
2022-10-28T19:24:16.129Z,3.90
2022-10-28T19:26:45.825Z,3.03
2022-10-28T19:29:15.477Z,3.92
2022-10-28T19:31:45.589Z,3.30
2022-10-28T19:34:16.846Z,3.90
2022-10-28T19:37:07.187Z,3.25
2022-10-28T19:39:36.870Z,2.95
2022-10-28T19:42:06.503Z,4.28
2022-10-28T19:44:36.101Z,2.88
2022-10-28T19:47:05.921Z,2.78
2022-10-28T19:49:39.303Z,2.80
2022-10-28T19:52:10.603Z,3.03
2022-10-28T19:54:40.216Z,2.97
2022-10-28T19:57:10.040Z,4.43
2022-10-28T19:59:39.876Z,3.28
2022-10-28T20:02:09.883Z,3.47
2022-10-28T20:04:40.682Z,3.15
2022-10-28T20:07:10.264Z,3.15
2022-10-28T20:09:39.893Z,3.13
2022-10-28T20:12:09.621Z,3.30
2022-10-28T20:14:39.271Z,3.10
2022-10-28T20:17:08.968Z,3.28
2022-10-28T20:19:38.539Z,3.08
2022-10-28T20:22:08.418Z,3.15
2022-10-28T20:24:38.007Z,3.75
2022-10-28T20:27:07.642Z,3.10
2022-10-28T20:29:37.320Z,3.22
2022-10-28T20:32:07.249Z,3.13
2022-10-28T20:34:37.297Z,3.05
2022-10-28T20:37:07.056Z,3.20
2022-10-28T20:39:36.951Z,2.88
2022-10-28T20:42:07.133Z,3.40
2022-10-28T20:44:36.957Z,3.83
2022-10-28T20:47:06.898Z,2.85
2022-10-28T20:49:36.545Z,2.90
2022-10-28T20:52:06.198Z,3.42
2022-10-28T20:54:35.843Z,3.40
2022-10-28T20:57:05.669Z,3.67
2022-10-28T20:59:35.353Z,3.40
2022-10-28T21:02:05.416Z,3.75
2022-10-28T21:04:35.369Z,3.28
2022-10-28T21:07:05.130Z,3.22
2022-10-28T21:09:34.756Z,3.28
2022-10-28T21:12:04.488Z,3.25
2022-10-28T21:14:34.320Z,3.13
2022-10-28T21:17:04.208Z,3.25
2022-10-28T21:19:33.883Z,3.58
2022-10-28T21:22:03.411Z,3.42
2022-10-28T21:24:33.070Z,3.40
2022-10-28T21:27:02.648Z,3.70
2022-10-28T21:29:32.211Z,3.63
2022-10-28T21:32:01.789Z,3.15
2022-10-28T21:34:31.627Z,2.95
2022-10-28T21:37:01.501Z,2.95
2022-10-28T21:39:31.152Z,2.88
2022-10-28T21:42:01.238Z,4.53
2022-10-28T21:44:30.826Z,2.83
2022-10-28T21:47:01.915Z,2.85
2022-10-28T21:49:31.556Z,2.47
2022-10-28T21:52:01.205Z,2.13
2022-10-28T21:54:31.123Z,2.10
2022-10-28T21:57:01.131Z,2.00
2022-10-28T21:59:30.909Z,2.05
2022-10-28T22:02:00.850Z,2.00
2022-10-28T22:04:31.062Z,1.75
2022-10-28T22:07:00.683Z,1.33
2022-10-28T22:09:33.541Z,1.83
2022-10-28T22:12:06.298Z,1.42
2022-10-28T22:14:35.847Z,1.50
2022-10-28T22:17:05.472Z,1.40
2022-10-28T22:19:35.430Z,1.70
2022-10-28T22:22:05.096Z,1.48
2022-10-28T22:24:35.058Z,1.50
2022-10-28T22:27:04.757Z,1.58
2022-10-28T22:29:34.780Z,1.92
2022-10-28T22:32:04.680Z,1.67
2022-10-28T22:34:34.311Z,1.23
2022-10-28T22:37:04.549Z,1.80
2022-10-28T22:39:34.189Z,1.30
2022-10-28T22:42:04.146Z,1.50
2022-10-28T22:44:33.782Z,1.40
2022-10-28T22:47:03.565Z,1.17
2022-10-28T22:49:33.433Z,1.50
2022-10-28T22:52:03.036Z,1.23
2022-10-28T22:54:33.929Z,1.38
2022-10-28T22:57:03.764Z,1.77
2022-10-28T22:59:33.618Z,1.25
2022-10-28T23:02:03.590Z,1.63
2022-10-28T23:04:33.363Z,2.05
2022-10-28T23:07:03.037Z,2.53
2022-10-28T23:09:32.693Z,2.30
2022-10-28T23:12:03.058Z,3.47
2022-10-28T23:14:33.902Z,2.20
2022-10-28T23:17:03.755Z,2.30
2022-10-28T23:19:34.443Z,2.72
2022-10-28T23:22:04.307Z,3.08
2022-10-28T23:24:34.114Z,2.50
2022-10-28T23:27:03.726Z,3.53
2022-10-28T23:29:34.028Z,3.10
2022-10-28T23:32:03.956Z,2.53
2022-10-28T23:34:33.833Z,3.40
2022-10-28T23:37:03.854Z,3.30
2022-10-28T23:39:33.781Z,2.72
2022-10-28T23:42:03.538Z,3.28
2022-10-28T23:44:33.509Z,2.58
2022-10-28T23:47:03.437Z,2.47
2022-10-28T23:49:33.400Z,2.50
2022-10-28T23:52:03.093Z,2.15
2022-10-28T23:54:32.798Z,1.95
2022-10-28T23:57:02.727Z,1.77
2022-10-28T23:59:32.432Z,1.70
